EGMC METAR and TAF | Updated Today

EGMC METAR

Southend Airport

Observation time: 34 min. ago

EGMC 291950Z 27004KT CAVOK 09/06 Q1008

Need help? Read our tutorial on how to read METARs or read the parsed version below.

Southend Airport (EGMC) METAR

  • Weather conditions on Thu, 29 Sep 2022 19:50:00 +0000 (34 min. ago):
  • Present conditions: Dry
  • Clouds: Clear skies
  • Visibility: Greater than 10 km
  • Wind: 270 degrees at 4 knots
  • Temperature: 9 celsius
  • Dew point: 6 celsius
  • Pressure: 1008 millibars
  • Remarks: None


Useful to know...

EGMC TAF

Southend Airport

TAF EGMC 291655Z 2918/3003 31005KT 9999 SCT045 PROB30 TEMPO 2918/2922 9000 -RA
Observation time: 3:29 hr. ago
Need help? Read our tutorial on how to read TAFs or read the parsed version below.

Parsed version of TAF for Southend Airport (EGMC)

  • From 29 September at 18:00 UTC, to day 30 of the month at 03:00 UTC
  • Clouds: Scattered at 1372 meters
  • Visibility: Greater than 10 km
  • Wind: 310 degrees at 5
  • Expected to arise temporarily, from 29 September at 18:00 UTC, to day 29 of the month at 22:00 UTC
    Probability of 30%
  • Visibility: 9000 meters
  • Other: Light rain